sensor_id;sensor_type;location;lat;lon;timestamp;P1;durP1;ratioP1;P2;durP2;ratioP2
48629;SDS011;34426;52.180;4.462;2023-06-22T00:01:34;22.63;;;17.65;;
48629;SDS011;34426;52.180;4.462;2023-06-22T00:04:00;26.95;;;17.50;;
48629;SDS011;34426;52.180;4.462;2023-06-22T00:06:27;20.83;;;17.35;;
48629;SDS011;34426;52.180;4.462;2023-06-22T00:08:52;24.15;;;16.98;;
48629;SDS011;34426;52.180;4.462;2023-06-22T00:11:18;22.75;;;17.35;;
48629;SDS011;34426;52.180;4.462;2023-06-22T00:13:43;21.77;;;16.95;;
48629;SDS011;34426;52.180;4.462;2023-06-22T00:16:09;24.10;;;17.23;;
48629;SDS011;34426;52.180;4.462;2023-06-22T00:18:35;21.00;;;16.80;;
48629;SDS011;34426;52.180;4.462;2023-06-22T00:21:00;23.35;;;18.13;;
48629;SDS011;34426;52.180;4.462;2023-06-22T00:23:27;24.70;;;19.15;;
48629;SDS011;34426;52.180;4.462;2023-06-22T00:25:52;26.88;;;17.55;;
48629;SDS011;34426;52.180;4.462;2023-06-22T00:28:18;20.63;;;16.90;;
48629;SDS011;34426;52.180;4.462;2023-06-22T00:30:44;23.35;;;17.17;;
48629;SDS011;34426;52.180;4.462;2023-06-22T00:33:09;22.08;;;17.85;;
48629;SDS011;34426;52.180;4.462;2023-06-22T00:35:35;26.10;;;20.67;;
48629;SDS011;34426;52.180;4.462;2023-06-22T00:38:00;26.42;;;19.65;;
48629;SDS011;34426;52.180;4.462;2023-06-22T00:40:27;27.50;;;19.48;;
48629;SDS011;34426;52.180;4.462;2023-06-22T00:42:53;32.55;;;21.88;;
48629;SDS011;34426;52.180;4.462;2023-06-22T00:45:19;24.13;;;20.17;;
48629;SDS011;34426;52.180;4.462;2023-06-22T00:47:44;30.50;;;21.50;;
48629;SDS011;34426;52.180;4.462;2023-06-22T00:50:10;26.02;;;19.42;;
48629;SDS011;34426;52.180;4.462;2023-06-22T00:52:43;25.25;;;19.58;;
48629;SDS011;34426;52.180;4.462;2023-06-22T00:55:08;27.70;;;20.23;;
48629;SDS011;34426;52.180;4.462;2023-06-22T00:57:36;29.00;;;19.92;;
48629;SDS011;34426;52.180;4.462;2023-06-22T01:00:01;27.73;;;21.05;;
48629;SDS011;34426;52.180;4.462;2023-06-22T01:02:27;30.13;;;20.95;;
48629;SDS011;34426;52.180;4.462;2023-06-22T01:04:53;29.55;;;20.73;;
48629;SDS011;34426;52.180;4.462;2023-06-22T01:07:20;28.75;;;19.85;;
48629;SDS011;34426;52.180;4.462;2023-06-22T01:09:52;28.10;;;20.48;;
48629;SDS011;34426;52.180;4.462;2023-06-22T01:12:24;28.10;;;20.58;;
48629;SDS011;34426;52.180;4.462;2023-06-22T01:14:55;30.17;;;22.45;;
48629;SDS011;34426;52.180;4.462;2023-06-22T01:17:27;28.30;;;21.95;;
48629;SDS011;34426;52.180;4.462;2023-06-22T01:19:54;27.40;;;21.25;;
48629;SDS011;34426;52.180;4.462;2023-06-22T01:22:20;34.38;;;23.35;;
48629;SDS011;34426;52.180;4.462;2023-06-22T01:24:51;33.78;;;24.83;;
48629;SDS011;34426;52.180;4.462;2023-06-22T01:27:26;28.48;;;22.58;;
48629;SDS011;34426;52.180;4.462;2023-06-22T01:29:59;34.33;;;25.58;;
48629;SDS011;34426;52.180;4.462;2023-06-22T01:32:28;34.50;;;25.35;;
48629;SDS011;34426;52.180;4.462;2023-06-22T01:34:56;33.58;;;24.17;;
48629;SDS011;34426;52.180;4.462;2023-06-22T01:37:23;33.58;;;25.08;;
48629;SDS011;34426;52.180;4.462;2023-06-22T01:39:49;31.05;;;24.15;;
48629;SDS011;34426;52.180;4.462;2023-06-22T01:42:15;32.20;;;23.65;;
48629;SDS011;34426;52.180;4.462;2023-06-22T01:44:41;32.83;;;24.25;;
48629;SDS011;34426;52.180;4.462;2023-06-22T01:47:09;34.55;;;26.05;;
48629;SDS011;34426;52.180;4.462;2023-06-22T01:49:35;32.60;;;25.20;;
48629;SDS011;34426;52.180;4.462;2023-06-22T01:52:02;36.20;;;26.15;;
48629;SDS011;34426;52.180;4.462;2023-06-22T01:54:28;32.65;;;24.45;;
48629;SDS011;34426;52.180;4.462;2023-06-22T01:56:54;31.90;;;25.13;;
48629;SDS011;34426;52.180;4.462;2023-06-22T01:59:21;33.55;;;24.70;;
48629;SDS011;34426;52.180;4.462;2023-06-22T02:01:54;37.70;;;26.48;;
48629;SDS011;34426;52.180;4.462;2023-06-22T02:04:26;34.40;;;25.73;;
48629;SDS011;34426;52.180;4.462;2023-06-22T02:06:58;39.83;;;28.40;;
48629;SDS011;34426;52.180;4.462;2023-06-22T02:09:25;41.00;;;29.48;;
48629;SDS011;34426;52.180;4.462;2023-06-22T02:11:55;35.45;;;28.30;;
48629;SDS011;34426;52.180;4.462;2023-06-22T02:14:23;39.58;;;28.52;;
48629;SDS011;34426;52.180;4.462;2023-06-22T02:16:50;39.58;;;27.42;;
48629;SDS011;34426;52.180;4.462;2023-06-22T02:19:16;39.80;;;27.50;;
48629;SDS011;34426;52.180;4.462;2023-06-22T02:21:43;38.13;;;28.27;;
48629;SDS011;34426;52.180;4.462;2023-06-22T02:24:08;37.85;;;27.90;;
48629;SDS011;34426;52.180;4.462;2023-06-22T02:26:34;41.72;;;30.58;;
48629;SDS011;34426;52.180;4.462;2023-06-22T02:29:00;38.25;;;28.60;;
48629;SDS011;34426;52.180;4.462;2023-06-22T02:31:25;42.95;;;31.20;;
48629;SDS011;34426;52.180;4.462;2023-06-22T02:33:51;42.50;;;30.95;;
48629;SDS011;34426;52.180;4.462;2023-06-22T02:36:16;44.63;;;32.17;;
48629;SDS011;34426;52.180;4.462;2023-06-22T02:38:43;41.35;;;30.85;;
48629;SDS011;34426;52.180;4.462;2023-06-22T02:41:08;48.22;;;33.63;;
48629;SDS011;34426;52.180;4.462;2023-06-22T02:43:34;49.38;;;35.35;;
48629;SDS011;34426;52.180;4.462;2023-06-22T02:45:59;52.92;;;37.50;;
48629;SDS011;34426;52.180;4.462;2023-06-22T02:48:25;55.80;;;37.45;;
48629;SDS011;34426;52.180;4.462;2023-06-22T02:50:51;47.40;;;34.67;;
48629;SDS011;34426;52.180;4.462;2023-06-22T02:53:16;49.83;;;35.50;;
48629;SDS011;34426;52.180;4.462;2023-06-22T02:55:43;49.83;;;34.47;;
48629;SDS011;34426;52.180;4.462;2023-06-22T02:58:08;50.30;;;33.42;;
48629;SDS011;34426;52.180;4.462;2023-06-22T03:00:34;47.67;;;33.40;;
48629;SDS011;34426;52.180;4.462;2023-06-22T03:02:59;48.15;;;34.92;;
48629;SDS011;34426;52.180;4.462;2023-06-22T03:05:25;49.95;;;34.28;;
48629;SDS011;34426;52.180;4.462;2023-06-22T03:07:50;47.90;;;33.50;;
48629;SDS011;34426;52.180;4.462;2023-06-22T03:10:16;45.80;;;32.15;;
48629;SDS011;34426;52.180;4.462;2023-06-22T03:12:43;47.65;;;34.83;;
48629;SDS011;34426;52.180;4.462;2023-06-22T03:15:09;49.30;;;34.03;;
48629;SDS011;34426;52.180;4.462;2023-06-22T03:17:36;56.53;;;35.17;;
48629;SDS011;34426;52.180;4.462;2023-06-22T03:20:02;49.53;;;33.15;;
48629;SDS011;34426;52.180;4.462;2023-06-22T03:22:28;50.13;;;35.78;;
48629;SDS011;34426;52.180;4.462;2023-06-22T03:24:54;48.95;;;34.08;;
48629;SDS011;34426;52.180;4.462;2023-06-22T03:27:19;47.30;;;34.25;;
48629;SDS011;34426;52.180;4.462;2023-06-22T03:29:46;49.45;;;33.40;;
48629;SDS011;34426;52.180;4.462;2023-06-22T03:32:12;51.35;;;34.80;;
48629;SDS011;34426;52.180;4.462;2023-06-22T03:34:37;47.00;;;32.67;;
48629;SDS011;34426;52.180;4.462;2023-06-22T03:37:03;48.33;;;33.58;;
48629;SDS011;34426;52.180;4.462;2023-06-22T03:39:29;46.08;;;31.70;;
48629;SDS011;34426;52.180;4.462;2023-06-22T03:41:54;48.08;;;33.80;;
48629;SDS011;34426;52.180;4.462;2023-06-22T03:44:20;45.00;;;32.22;;
48629;SDS011;34426;52.180;4.462;2023-06-22T03:46:46;48.78;;;33.50;;
48629;SDS011;34426;52.180;4.462;2023-06-22T03:49:12;49.55;;;32.25;;
48629;SDS011;34426;52.180;4.462;2023-06-22T03:51:37;49.20;;;34.20;;
48629;SDS011;34426;52.180;4.462;2023-06-22T03:54:03;47.40;;;33.00;;
48629;SDS011;34426;52.180;4.462;2023-06-22T03:56:28;50.10;;;33.00;;
48629;SDS011;34426;52.180;4.462;2023-06-22T03:58:54;53.70;;;33.92;;
48629;SDS011;34426;52.180;4.462;2023-06-22T04:01:19;47.80;;;32.55;;
48629;SDS011;34426;52.180;4.462;2023-06-22T04:03:46;44.05;;;32.38;;
48629;SDS011;34426;52.180;4.462;2023-06-22T04:06:12;46.72;;;32.22;;
48629;SDS011;34426;52.180;4.462;2023-06-22T04:08:37;50.42;;;33.45;;
48629;SDS011;34426;52.180;4.462;2023-06-22T04:11:03;49.20;;;32.83;;
48629;SDS011;34426;52.180;4.462;2023-06-22T04:13:28;44.38;;;31.90;;
48629;SDS011;34426;52.180;4.462;2023-06-22T04:15:54;53.05;;;35.08;;
48629;SDS011;34426;52.180;4.462;2023-06-22T04:18:19;52.28;;;33.50;;
48629;SDS011;34426;52.180;4.462;2023-06-22T04:20:46;45.88;;;32.22;;
48629;SDS011;34426;52.180;4.462;2023-06-22T04:23:12;51.72;;;33.47;;
48629;SDS011;34426;52.180;4.462;2023-06-22T04:25:37;52.80;;;33.47;;
48629;SDS011;34426;52.180;4.462;2023-06-22T04:28:03;47.17;;;33.03;;
48629;SDS011;34426;52.180;4.462;2023-06-22T04:30:28;48.03;;;32.55;;
48629;SDS011;34426;52.180;4.462;2023-06-22T04:32:54;47.80;;;32.60;;
48629;SDS011;34426;52.180;4.462;2023-06-22T04:35:19;54.03;;;34.33;;
48629;SDS011;34426;52.180;4.462;2023-06-22T04:37:46;47.88;;;33.60;;
48629;SDS011;34426;52.180;4.462;2023-06-22T04:40:12;48.65;;;33.03;;
48629;SDS011;34426;52.180;4.462;2023-06-22T04:42:37;40.47;;;30.27;;
48629;SDS011;34426;52.180;4.462;2023-06-22T04:45:05;46.65;;;32.80;;
48629;SDS011;34426;52.180;4.462;2023-06-22T04:47:31;53.35;;;35.05;;
48629;SDS011;34426;52.180;4.462;2023-06-22T04:49:58;55.97;;;36.15;;
48629;SDS011;34426;52.180;4.462;2023-06-22T04:52:23;55.65;;;37.83;;
48629;SDS011;34426;52.180;4.462;2023-06-22T04:54:50;60.05;;;40.55;;
48629;SDS011;34426;52.180;4.462;2023-06-22T04:57:16;62.40;;;38.58;;
48629;SDS011;34426;52.180;4.462;2023-06-22T04:59:41;62.78;;;38.28;;
48629;SDS011;34426;52.180;4.462;2023-06-22T05:02:07;59.63;;;38.30;;
48629;SDS011;34426;52.180;4.462;2023-06-22T05:04:33;62.78;;;40.42;;
48629;SDS011;34426;52.180;4.462;2023-06-22T05:06:59;63.95;;;39.22;;
48629;SDS011;34426;52.180;4.462;2023-06-22T05:09:25;59.88;;;40.20;;
48629;SDS011;34426;52.180;4.462;2023-06-22T05:11:52;57.35;;;40.15;;
48629;SDS011;34426;52.180;4.462;2023-06-22T05:14:18;61.10;;;42.00;;
48629;SDS011;34426;52.180;4.462;2023-06-22T05:16:44;66.65;;;41.72;;
48629;SDS011;34426;52.180;4.462;2023-06-22T05:19:10;64.88;;;41.00;;
48629;SDS011;34426;52.180;4.462;2023-06-22T05:21:36;68.13;;;38.35;;
48629;SDS011;34426;52.180;4.462;2023-06-22T05:24:02;64.35;;;39.20;;
48629;SDS011;34426;52.180;4.462;2023-06-22T05:26:27;53.92;;;36.80;;
48629;SDS011;34426;52.180;4.462;2023-06-22T05:28:55;52.17;;;35.20;;
48629;SDS011;34426;52.180;4.462;2023-06-22T05:31:21;52.95;;;35.28;;
48629;SDS011;34426;52.180;4.462;2023-06-22T05:33:48;51.08;;;34.83;;
48629;SDS011;34426;52.180;4.462;2023-06-22T05:36:14;54.55;;;37.38;;
48629;SDS011;34426;52.180;4.462;2023-06-22T05:38:40;53.20;;;32.90;;
48629;SDS011;34426;52.180;4.462;2023-06-22T05:41:07;51.70;;;34.08;;
48629;SDS011;34426;52.180;4.462;2023-06-22T05:43:32;51.65;;;32.95;;
48629;SDS011;34426;52.180;4.462;2023-06-22T05:45:59;58.75;;;32.97;;
48629;SDS011;34426;52.180;4.462;2023-06-22T05:48:26;50.65;;;34.35;;
48629;SDS011;34426;52.180;4.462;2023-06-22T05:50:52;52.13;;;34.70;;
48629;SDS011;34426;52.180;4.462;2023-06-22T05:53:17;52.50;;;35.03;;
48629;SDS011;34426;52.180;4.462;2023-06-22T05:55:43;56.78;;;34.80;;
48629;SDS011;34426;52.180;4.462;2023-06-22T05:58:09;50.13;;;34.55;;
48629;SDS011;34426;52.180;4.462;2023-06-22T06:00:34;51.30;;;33.95;;
48629;SDS011;34426;52.180;4.462;2023-06-22T06:03:02;52.13;;;35.45;;
48629;SDS011;34426;52.180;4.462;2023-06-22T06:05:27;51.00;;;33.50;;
48629;SDS011;34426;52.180;4.462;2023-06-22T06:07:53;50.38;;;34.20;;
48629;SDS011;34426;52.180;4.462;2023-06-22T06:10:19;56.83;;;36.60;;
48629;SDS011;34426;52.180;4.462;2023-06-22T06:12:44;53.63;;;37.20;;
48629;SDS011;34426;52.180;4.462;2023-06-22T06:15:10;50.10;;;35.15;;
48629;SDS011;34426;52.180;4.462;2023-06-22T06:17:35;51.05;;;32.35;;
48629;SDS011;34426;52.180;4.462;2023-06-22T06:20:11;53.40;;;35.05;;
48629;SDS011;34426;52.180;4.462;2023-06-22T06:22:37;61.38;;;34.65;;
48629;SDS011;34426;52.180;4.462;2023-06-22T06:25:02;44.38;;;32.47;;
48629;SDS011;34426;52.180;4.462;2023-06-22T06:27:28;50.83;;;34.17;;
48629;SDS011;34426;52.180;4.462;2023-06-22T06:29:53;47.00;;;31.88;;
48629;SDS011;34426;52.180;4.462;2023-06-22T06:32:19;49.45;;;31.02;;
48629;SDS011;34426;52.180;4.462;2023-06-22T06:34:44;45.83;;;29.15;;
48629;SDS011;34426;52.180;4.462;2023-06-22T06:37:11;36.17;;;27.60;;
48629;SDS011;34426;52.180;4.462;2023-06-22T06:39:37;37.72;;;25.88;;
48629;SDS011;34426;52.180;4.462;2023-06-22T06:42:03;36.92;;;26.83;;
48629;SDS011;34426;52.180;4.462;2023-06-22T06:44:30;36.58;;;25.05;;
48629;SDS011;34426;52.180;4.462;2023-06-22T06:46:55;30.88;;;23.25;;
48629;SDS011;34426;52.180;4.462;2023-06-22T06:49:20;31.85;;;24.92;;
48629;SDS011;34426;52.180;4.462;2023-06-22T06:51:46;34.00;;;22.77;;
48629;SDS011;34426;52.180;4.462;2023-06-22T06:54:13;31.42;;;22.35;;
48629;SDS011;34426;52.180;4.462;2023-06-22T06:56:38;25.08;;;18.58;;
48629;SDS011;34426;52.180;4.462;2023-06-22T06:59:04;24.23;;;18.17;;
48629;SDS011;34426;52.180;4.462;2023-06-22T07:01:29;26.45;;;19.25;;
48629;SDS011;34426;52.180;4.462;2023-06-22T07:03:55;23.85;;;19.75;;
48629;SDS011;34426;52.180;4.462;2023-06-22T07:06:20;27.65;;;18.33;;
48629;SDS011;34426;52.180;4.462;2023-06-22T07:08:46;21.75;;;17.27;;
48629;SDS011;34426;52.180;4.462;2023-06-22T07:11:13;25.42;;;17.73;;
48629;SDS011;34426;52.180;4.462;2023-06-22T07:13:38;21.23;;;16.23;;
48629;SDS011;34426;52.180;4.462;2023-06-22T07:16:04;21.92;;;17.00;;
48629;SDS011;34426;52.180;4.462;2023-06-22T07:18:29;21.98;;;15.15;;
48629;SDS011;34426;52.180;4.462;2023-06-22T07:20:55;21.35;;;15.43;;
48629;SDS011;34426;52.180;4.462;2023-06-22T07:23:20;17.15;;;13.70;;
48629;SDS011;34426;52.180;4.462;2023-06-22T07:25:46;26.08;;;13.55;;
48629;SDS011;34426;52.180;4.462;2023-06-22T07:28:13;17.40;;;12.18;;
48629;SDS011;34426;52.180;4.462;2023-06-22T07:30:38;18.85;;;12.10;;
48629;SDS011;34426;52.180;4.462;2023-06-22T07:33:04;18.98;;;11.45;;
48629;SDS011;34426;52.180;4.462;2023-06-22T07:35:29;18.85;;;11.10;;
48629;SDS011;34426;52.180;4.462;2023-06-22T07:37:55;16.75;;;10.50;;
48629;SDS011;34426;52.180;4.462;2023-06-22T07:40:20;15.73;;;11.27;;
48629;SDS011;34426;52.180;4.462;2023-06-22T07:42:46;13.77;;;8.82;;
48629;SDS011;34426;52.180;4.462;2023-06-22T07:45:13;14.18;;;9.70;;
48629;SDS011;34426;52.180;4.462;2023-06-22T07:47:38;15.75;;;9.65;;
48629;SDS011;34426;52.180;4.462;2023-06-22T07:50:04;19.73;;;9.23;;
48629;SDS011;34426;52.180;4.462;2023-06-22T07:52:30;12.68;;;8.13;;
48629;SDS011;34426;52.180;4.462;2023-06-22T07:54:57;11.18;;;7.38;;
48629;SDS011;34426;52.180;4.462;2023-06-22T07:57:22;10.02;;;6.85;;
48629;SDS011;34426;52.180;4.462;2023-06-22T07:59:48;10.75;;;6.65;;
48629;SDS011;34426;52.180;4.462;2023-06-22T08:02:15;14.70;;;6.90;;
48629;SDS011;34426;52.180;4.462;2023-06-22T08:04:40;11.05;;;7.65;;
48629;SDS011;34426;52.180;4.462;2023-06-22T08:07:06;9.55;;;7.07;;
48629;SDS011;34426;52.180;4.462;2023-06-22T08:09:32;11.38;;;6.68;;
48629;SDS011;34426;52.180;4.462;2023-06-22T08:11:58;9.27;;;6.00;;
48629;SDS011;34426;52.180;4.462;2023-06-22T08:14:25;6.65;;;4.93;;
48629;SDS011;34426;52.180;4.462;2023-06-22T08:16:51;9.85;;;5.55;;
48629;SDS011;34426;52.180;4.462;2023-06-22T08:19:18;9.13;;;5.32;;
48629;SDS011;34426;52.180;4.462;2023-06-22T08:21:43;10.82;;;6.38;;
48629;SDS011;34426;52.180;4.462;2023-06-22T08:24:09;12.70;;;6.30;;
48629;SDS011;34426;52.180;4.462;2023-06-22T08:26:34;14.50;;;6.70;;
48629;SDS011;34426;52.180;4.462;2023-06-22T08:29:00;13.32;;;7.03;;
48629;SDS011;34426;52.180;4.462;2023-06-22T08:31:25;9.50;;;5.90;;
48629;SDS011;34426;52.180;4.462;2023-06-22T08:33:51;10.13;;;5.57;;
48629;SDS011;34426;52.180;4.462;2023-06-22T08:36:18;12.10;;;6.22;;
48629;SDS011;34426;52.180;4.462;2023-06-22T08:38:43;9.77;;;5.90;;
48629;SDS011;34426;52.180;4.462;2023-06-22T08:41:09;12.35;;;6.50;;
48629;SDS011;34426;52.180;4.462;2023-06-22T08:43:34;11.50;;;5.97;;
48629;SDS011;34426;52.180;4.462;2023-06-22T08:46:00;11.88;;;6.07;;
48629;SDS011;34426;52.180;4.462;2023-06-22T08:48:25;13.35;;;5.75;;
48629;SDS011;34426;52.180;4.462;2023-06-22T08:50:51;19.25;;;8.23;;
48629;SDS011;34426;52.180;4.462;2023-06-22T08:53:18;12.32;;;8.00;;
48629;SDS011;34426;52.180;4.462;2023-06-22T08:55:43;12.10;;;7.63;;
48629;SDS011;34426;52.180;4.462;2023-06-22T08:58:09;12.07;;;7.85;;
48629;SDS011;34426;52.180;4.462;2023-06-22T09:00:35;12.90;;;7.60;;
48629;SDS011;34426;52.180;4.462;2023-06-22T09:03:00;12.27;;;7.47;;
48629;SDS011;34426;52.180;4.462;2023-06-22T09:05:25;11.75;;;7.30;;
48629;SDS011;34426;52.180;4.462;2023-06-22T09:07:51;13.38;;;6.53;;
48629;SDS011;34426;52.180;4.462;2023-06-22T09:10:18;11.82;;;6.45;;
48629;SDS011;34426;52.180;4.462;2023-06-22T09:12:44;12.43;;;6.65;;
48629;SDS011;34426;52.180;4.462;2023-06-22T09:15:09;10.57;;;7.78;;
48629;SDS011;34426;52.180;4.462;2023-06-22T09:17:35;15.18;;;7.10;;
48629;SDS011;34426;52.180;4.462;2023-06-22T09:20:00;17.33;;;7.65;;
48629;SDS011;34426;52.180;4.462;2023-06-22T09:22:27;14.95;;;7.82;;
48629;SDS011;34426;52.180;4.462;2023-06-22T09:24:53;14.80;;;9.07;;
48629;SDS011;34426;52.180;4.462;2023-06-22T09:27:20;11.60;;;8.63;;
48629;SDS011;34426;52.180;4.462;2023-06-22T09:29:45;13.93;;;8.43;;
48629;SDS011;34426;52.180;4.462;2023-06-22T09:32:11;20.98;;;10.40;;
48629;SDS011;34426;52.180;4.462;2023-06-22T09:34:36;13.70;;;10.07;;
48629;SDS011;34426;52.180;4.462;2023-06-22T09:37:02;16.67;;;10.98;;
48629;SDS011;34426;52.180;4.462;2023-06-22T09:39:27;14.05;;;10.68;;
48629;SDS011;34426;52.180;4.462;2023-06-22T09:41:53;13.50;;;9.40;;
48629;SDS011;34426;52.180;4.462;2023-06-22T09:44:20;14.98;;;9.50;;
48629;SDS011;34426;52.180;4.462;2023-06-22T09:46:46;16.45;;;9.88;;
48629;SDS011;34426;52.180;4.462;2023-06-22T09:49:11;13.35;;;9.07;;
48629;SDS011;34426;52.180;4.462;2023-06-22T09:51:37;17.88;;;10.25;;
48629;SDS011;34426;52.180;4.462;2023-06-22T09:54:02;15.40;;;8.68;;
48629;SDS011;34426;52.180;4.462;2023-06-22T09:56:31;14.82;;;7.97;;
48629;SDS011;34426;52.180;4.462;2023-06-22T09:58:56;12.07;;;6.93;;
48629;SDS011;34426;52.180;4.462;2023-06-22T10:01:23;14.10;;;6.88;;
48629;SDS011;34426;52.180;4.462;2023-06-22T10:03:49;12.50;;;6.50;;
48629;SDS011;34426;52.180;4.462;2023-06-22T10:06:14;14.98;;;7.53;;
48629;SDS011;34426;52.180;4.462;2023-06-22T10:08:40;11.52;;;6.38;;
48629;SDS011;34426;52.180;4.462;2023-06-22T10:11:05;12.70;;;6.68;;
48629;SDS011;34426;52.180;4.462;2023-06-22T10:13:31;11.77;;;5.53;;
48629;SDS011;34426;52.180;4.462;2023-06-22T10:15:57;10.60;;;7.20;;
48629;SDS011;34426;52.180;4.462;2023-06-22T10:18:24;10.20;;;6.78;;
48629;SDS011;34426;52.180;4.462;2023-06-22T10:20:50;10.82;;;5.40;;
48629;SDS011;34426;52.180;4.462;2023-06-22T10:23:17;12.13;;;5.00;;
48629;SDS011;34426;52.180;4.462;2023-06-22T10:25:43;9.57;;;5.43;;
48629;SDS011;34426;52.180;4.462;2023-06-22T10:28:08;9.82;;;5.45;;
48629;SDS011;34426;52.180;4.462;2023-06-22T10:30:34;14.75;;;6.13;;
48629;SDS011;34426;52.180;4.462;2023-06-22T10:33:00;11.02;;;6.05;;
48629;SDS011;34426;52.180;4.462;2023-06-22T10:35:26;10.38;;;6.43;;
48629;SDS011;34426;52.180;4.462;2023-06-22T10:37:52;7.13;;;5.57;;
48629;SDS011;34426;52.180;4.462;2023-06-22T10:40:17;11.52;;;6.40;;
48629;SDS011;34426;52.180;4.462;2023-06-22T10:42:43;10.57;;;5.70;;
48629;SDS011;34426;52.180;4.462;2023-06-22T10:45:09;13.35;;;6.80;;
48629;SDS011;34426;52.180;4.462;2023-06-22T10:47:35;12.93;;;7.85;;
48629;SDS011;34426;52.180;4.462;2023-06-22T10:50:01;9.70;;;7.70;;
48629;SDS011;34426;52.180;4.462;2023-06-22T10:52:28;11.80;;;6.07;;
48629;SDS011;34426;52.180;4.462;2023-06-22T10:54:54;12.90;;;7.88;;
48629;SDS011;34426;52.180;4.462;2023-06-22T10:57:19;11.00;;;8.00;;
48629;SDS011;34426;52.180;4.462;2023-06-22T10:59:45;13.98;;;8.23;;
48629;SDS011;34426;52.180;4.462;2023-06-22T11:02:10;10.85;;;7.90;;
48629;SDS011;34426;52.180;4.462;2023-06-22T11:04:36;16.02;;;10.00;;
48629;SDS011;34426;52.180;4.462;2023-06-22T11:07:01;13.68;;;8.57;;
48629;SDS011;34426;52.180;4.462;2023-06-22T11:09:28;17.55;;;7.93;;
48629;SDS011;34426;52.180;4.462;2023-06-22T11:11:55;11.80;;;6.10;;
48629;SDS011;34426;52.180;4.462;2023-06-22T11:14:20;15.13;;;9.10;;
48629;SDS011;34426;52.180;4.462;2023-06-22T11:16:46;12.15;;;9.88;;
48629;SDS011;34426;52.180;4.462;2023-06-22T11:19:11;21.02;;;11.45;;
48629;SDS011;34426;52.180;4.462;2023-06-22T11:21:37;17.38;;;10.75;;
48629;SDS011;34426;52.180;4.462;2023-06-22T11:24:03;15.63;;;10.70;;
48629;SDS011;34426;52.180;4.462;2023-06-22T11:26:30;21.25;;;10.07;;
48629;SDS011;34426;52.180;4.462;2023-06-22T11:28:56;16.67;;;9.57;;
48629;SDS011;34426;52.180;4.462;2023-06-22T11:31:21;15.20;;;8.55;;
48629;SDS011;34426;52.180;4.462;2023-06-22T11:33:47;18.17;;;8.13;;
48629;SDS011;34426;52.180;4.462;2023-06-22T11:36:12;14.60;;;8.32;;
48629;SDS011;34426;52.180;4.462;2023-06-22T11:38:38;13.23;;;8.63;;
48629;SDS011;34426;52.180;4.462;2023-06-22T11:41:03;17.17;;;8.90;;
48629;SDS011;34426;52.180;4.462;2023-06-22T11:43:30;14.07;;;8.77;;
48629;SDS011;34426;52.180;4.462;2023-06-22T11:45:56;14.57;;;9.85;;
48629;SDS011;34426;52.180;4.462;2023-06-22T11:48:22;11.82;;;8.93;;
48629;SDS011;34426;52.180;4.462;2023-06-22T11:50:47;10.50;;;8.35;;
48629;SDS011;34426;52.180;4.462;2023-06-22T11:53:13;15.38;;;9.90;;
48629;SDS011;34426;52.180;4.462;2023-06-22T11:55:38;12.82;;;9.27;;
48629;SDS011;34426;52.180;4.462;2023-06-22T11:58:04;14.43;;;7.43;;
48629;SDS011;34426;52.180;4.462;2023-06-22T12:00:31;15.60;;;9.23;;
48629;SDS011;34426;52.180;4.462;2023-06-22T12:02:56;12.63;;;8.27;;
48629;SDS011;34426;52.180;4.462;2023-06-22T12:05:22;17.55;;;8.95;;
48629;SDS011;34426;52.180;4.462;2023-06-22T12:07:47;16.35;;;9.20;;
48629;SDS011;34426;52.180;4.462;2023-06-22T12:10:13;23.77;;;10.80;;
48629;SDS011;34426;52.180;4.462;2023-06-22T12:12:39;23.55;;;10.10;;
48629;SDS011;34426;52.180;4.462;2023-06-22T12:15:04;17.17;;;9.75;;
48629;SDS011;34426;52.180;4.462;2023-06-22T12:17:32;15.00;;;10.15;;
48629;SDS011;34426;52.180;4.462;2023-06-22T12:19:58;14.60;;;10.50;;
48629;SDS011;34426;52.180;4.462;2023-06-22T12:22:23;22.20;;;10.70;;
48629;SDS011;34426;52.180;4.462;2023-06-22T12:24:49;19.30;;;12.02;;
48629;SDS011;34426;52.180;4.462;2023-06-22T12:27:14;17.20;;;13.85;;
48629;SDS011;34426;52.180;4.462;2023-06-22T12:29:40;18.38;;;12.20;;
48629;SDS011;34426;52.180;4.462;2023-06-22T12:32:06;14.88;;;12.85;;
48629;SDS011;34426;52.180;4.462;2023-06-22T12:34:33;18.50;;;13.02;;
48629;SDS011;34426;52.180;4.462;2023-06-22T12:36:59;18.35;;;12.25;;
48629;SDS011;34426;52.180;4.462;2023-06-22T12:39:25;19.45;;;12.27;;
48629;SDS011;34426;52.180;4.462;2023-06-22T12:41:50;16.60;;;10.80;;
48629;SDS011;34426;52.180;4.462;2023-06-22T12:44:16;17.83;;;11.57;;
48629;SDS011;34426;52.180;4.462;2023-06-22T12:46:42;20.80;;;11.98;;
48629;SDS011;34426;52.180;4.462;2023-06-22T12:49:07;19.33;;;13.57;;
48629;SDS011;34426;52.180;4.462;2023-06-22T12:51:39;22.55;;;12.20;;
48629;SDS011;34426;52.180;4.462;2023-06-22T12:54:05;17.63;;;12.38;;
48629;SDS011;34426;52.180;4.462;2023-06-22T12:56:30;15.82;;;11.45;;
48629;SDS011;34426;52.180;4.462;2023-06-22T12:58:56;25.58;;;11.73;;
48629;SDS011;34426;52.180;4.462;2023-06-22T13:01:21;19.00;;;13.27;;
48629;SDS011;34426;52.180;4.462;2023-06-22T13:03:46;19.65;;;12.43;;
48629;SDS011;34426;52.180;4.462;2023-06-22T13:06:12;20.88;;;12.70;;
48629;SDS011;34426;52.180;4.462;2023-06-22T13:08:39;21.52;;;12.85;;
48629;SDS011;34426;52.180;4.462;2023-06-22T13:11:04;20.40;;;12.82;;
48629;SDS011;34426;52.180;4.462;2023-06-22T13:13:30;18.27;;;12.15;;
48629;SDS011;34426;52.180;4.462;2023-06-22T13:15:56;18.38;;;12.02;;
48629;SDS011;34426;52.180;4.462;2023-06-22T13:18:21;16.63;;;12.10;;
48629;SDS011;34426;52.180;4.462;2023-06-22T13:20:47;21.95;;;12.23;;
48629;SDS011;34426;52.180;4.462;2023-06-22T13:23:12;14.32;;;10.57;;
48629;SDS011;34426;52.180;4.462;2023-06-22T13:25:40;20.55;;;12.05;;
48629;SDS011;34426;52.180;4.462;2023-06-22T13:28:05;18.23;;;10.63;;
48629;SDS011;34426;52.180;4.462;2023-06-22T13:30:31;22.05;;;11.60;;
48629;SDS011;34426;52.180;4.462;2023-06-22T13:32:56;20.88;;;11.73;;
48629;SDS011;34426;52.180;4.462;2023-06-22T13:35:22;16.92;;;10.90;;
48629;SDS011;34426;52.180;4.462;2023-06-22T13:37:47;13.27;;;10.52;;
48629;SDS011;34426;52.180;4.462;2023-06-22T13:40:13;16.40;;;9.90;;
48629;SDS011;34426;52.180;4.462;2023-06-22T13:42:40;14.13;;;10.75;;
48629;SDS011;34426;52.180;4.462;2023-06-22T13:45:06;17.35;;;10.43;;
48629;SDS011;34426;52.180;4.462;2023-06-22T13:47:32;15.27;;;10.02;;
48629;SDS011;34426;52.180;4.462;2023-06-22T13:49:58;14.15;;;10.05;;
48629;SDS011;34426;52.180;4.462;2023-06-22T13:52:24;14.27;;;9.55;;
48629;SDS011;34426;52.180;4.462;2023-06-22T13:54:49;18.58;;;9.80;;
48629;SDS011;34426;52.180;4.462;2023-06-22T13:57:15;20.95;;;9.70;;
48629;SDS011;34426;52.180;4.462;2023-06-22T13:59:42;13.63;;;9.40;;
48629;SDS011;34426;52.180;4.462;2023-06-22T14:02:07;15.65;;;8.90;;
48629;SDS011;34426;52.180;4.462;2023-06-22T14:04:33;21.27;;;9.35;;
48629;SDS011;34426;52.180;4.462;2023-06-22T14:06:58;15.77;;;9.38;;
48629;SDS011;34426;52.180;4.462;2023-06-22T14:09:24;15.38;;;9.45;;
48629;SDS011;34426;52.180;4.462;2023-06-22T14:11:49;13.98;;;9.70;;
48629;SDS011;34426;52.180;4.462;2023-06-22T14:14:15;9.80;;;7.43;;
48629;SDS011;34426;52.180;4.462;2023-06-22T14:16:42;16.27;;;8.93;;
48629;SDS011;34426;52.180;4.462;2023-06-22T14:19:07;16.65;;;10.15;;